EGPD/ABZ METAR and TAF weather

Enter ICAO airport designator
Station Type Date Time Source
EGPD METAR 2020/01/22 20:50 UTC NOAA

EGPD 222050Z AUTO 18003KT 9999 BKN034 BKN042 08/07 Q1033 NOSIG


Station Type Date Time Source
EGPD Decoded METAR 2020/01/22 20:50 UTC NOAA

Aberdeen / Dyce, United Kingdom (EGPD) 57-12N 002-13W 0M
Jan 22, 2020 - 03:50 PM EST / 2020.01.22 2050 UTC
Wind: from the S (180 degrees) at 3 MPH (3 KT):0
Visibility: greater than 7 mile(s):0
Sky conditions: mostly cloudy
Temperature: 46 F (8 C)
Dew Point: 44 F (7 C)
Relative Humidity: 93%
Pressure (altimeter): 30.50 in. Hg (1033 hPa)
ob: EGPD 222050Z AUTO 18003KT 9999 BKN034 BKN042 08/07 Q1033 NOSIG
cycle: 21

Station Type Date Time Source
EGPD TAF 2020/01/22 18:31 UTC NOAA

TAF
AMD EGPD 221826Z 2218/2318 26005KT 9999 SCT035
TEMPO 2218/2309 6000 PROB30
TEMPO 2218/2309 4000 BR

Example: see airport list